sensor_id;sensor_type;location;lat;lon;timestamp;pressure;altitude;pressure_sealevel;temperature;humidity
62420;BME280;48460;51.616;5.426;2022-11-20T00:02:10;101256.47;;;-2.27;100.00
62420;BME280;48460;51.616;5.426;2022-11-20T00:04:35;101258.22;;;-2.23;100.00
62420;BME280;48460;51.616;5.426;2022-11-20T00:07:00;101248.75;;;-2.29;100.00
62420;BME280;48460;51.616;5.426;2022-11-20T00:09:26;101247.03;;;-2.32;100.00
62420;BME280;48460;51.616;5.426;2022-11-20T00:11:51;101248.72;;;-2.34;100.00
62420;BME280;48460;51.616;5.426;2022-11-20T00:14:16;101239.25;;;-2.36;100.00
62420;BME280;48460;51.616;5.426;2022-11-20T00:16:42;101246.09;;;-2.38;100.00
62420;BME280;48460;51.616;5.426;2022-11-20T00:19:09;101239.22;;;-2.39;100.00
62420;BME280;48460;51.616;5.426;2022-11-20T00:21:35;101234.91;;;-2.42;100.00
62420;BME280;48460;51.616;5.426;2022-11-20T00:24:00;101244.34;;;-2.44;100.00
62420;BME280;48460;51.616;5.426;2022-11-20T00:26:27;101250.25;;;-2.59;100.00
62420;BME280;48460;51.616;5.426;2022-11-20T00:28:57;101258.66;;;-2.75;100.00
62420;BME280;48460;51.616;5.426;2022-11-20T00:31:23;101255.16;;;-2.85;100.00
62420;BME280;48460;51.616;5.426;2022-11-20T00:33:50;101261.13;;;-2.87;100.00
62420;BME280;48460;51.616;5.426;2022-11-20T00:36:18;101255.09;;;-2.91;100.00
62420;BME280;48460;51.616;5.426;2022-11-20T00:38:44;101249.94;;;-2.91;100.00
62420;BME280;48460;51.616;5.426;2022-11-20T00:41:15;101244.78;;;-2.92;100.00
62420;BME280;48460;51.616;5.426;2022-11-20T00:43:41;101249.94;;;-2.89;100.00
62420;BME280;48460;51.616;5.426;2022-11-20T00:46:09;101243.91;;;-2.94;100.00
62420;BME280;48460;51.616;5.426;2022-11-20T00:48:35;101243.03;;;-2.95;100.00
62420;BME280;48460;51.616;5.426;2022-11-20T00:51:01;101237.91;;;-2.93;100.00
62420;BME280;48460;51.616;5.426;2022-11-20T00:53:26;101253.38;;;-2.90;100.00
62420;BME280;48460;51.616;5.426;2022-11-20T00:55:56;101249.94;;;-2.91;100.00
62420;BME280;48460;51.616;5.426;2022-11-20T00:58:23;101249.09;;;-2.90;100.00
62420;BME280;48460;51.616;5.426;2022-11-20T01:00:50;101245.66;;;-2.89;100.00
62420;BME280;48460;51.616;5.426;2022-11-20T01:03:16;101248.19;;;-2.96;100.00
62420;BME280;48460;51.616;5.426;2022-11-20T01:05:42;101248.13;;;-3.03;100.00
62420;BME280;48460;51.616;5.426;2022-11-20T01:08:08;101248.06;;;-3.07;100.00
62420;BME280;48460;51.616;5.426;2022-11-20T01:10:33;101256.56;;;-3.13;100.00
62420;BME280;48460;51.616;5.426;2022-11-20T01:12:59;101245.38;;;-3.16;100.00
62420;BME280;48460;51.616;5.426;2022-11-20T01:15:43;101238.53;;;-3.16;100.00
62420;BME280;48460;51.616;5.426;2022-11-20T01:18:08;101250.56;;;-3.15;100.00
62420;BME280;48460;51.616;5.426;2022-11-20T01:20:34;101240.28;;;-3.13;100.00
62420;BME280;48460;51.616;5.426;2022-11-20T01:23:01;101239.41;;;-3.12;100.00
62420;BME280;48460;51.616;5.426;2022-11-20T01:25:26;101242.88;;;-3.12;100.00
62420;BME280;48460;51.616;5.426;2022-11-20T01:27:51;101245.34;;;-3.21;100.00
62420;BME280;48460;51.616;5.426;2022-11-20T01:30:17;101241.81;;;-3.29;100.00
62420;BME280;48460;51.616;5.426;2022-11-20T01:32:42;101243.38;;;-3.44;100.00
62420;BME280;48460;51.616;5.426;2022-11-20T01:35:08;101240.69;;;-3.53;100.00
62420;BME280;48460;51.616;5.426;2022-11-20T01:37:34;101245.81;;;-3.54;100.00
62420;BME280;48460;51.616;5.426;2022-11-20T01:40:00;101243.31;;;-3.50;100.00
62420;BME280;48460;51.616;5.426;2022-11-20T01:42:25;101230.44;;;-3.48;100.00
62420;BME280;48460;51.616;5.426;2022-11-20T01:48:13;101239.97;;;-3.41;100.00
62420;BME280;48460;51.616;5.426;2022-11-20T01:50:40;101233.16;;;-3.39;100.00
62420;BME280;48460;51.616;5.426;2022-11-20T01:53:09;101235.75;;;-3.36;100.00
62420;BME280;48460;51.616;5.426;2022-11-20T01:55:39;101240.91;;;-3.36;100.00
62420;BME280;48460;51.616;5.426;2022-11-20T01:58:07;101244.28;;;-3.38;100.00
62420;BME280;48460;51.616;5.426;2022-11-20T02:00:33;101244.19;;;-3.46;100.00
62420;BME280;48460;51.616;5.426;2022-11-20T02:03:08;101246.69;;;-3.54;100.00
62420;BME280;48460;51.616;5.426;2022-11-20T02:05:45;101243.94;;;-3.68;100.00
62420;BME280;48460;51.616;5.426;2022-11-20T02:08:12;101242.06;;;-3.78;100.00
62420;BME280;48460;51.616;5.426;2022-11-20T02:10:37;101235.16;;;-3.85;100.00
62420;BME280;48460;51.616;5.426;2022-11-20T02:13:03;101233.47;;;-3.81;100.00
62420;BME280;48460;51.616;5.426;2022-11-20T02:15:48;101231.00;;;-3.74;100.00
62420;BME280;48460;51.616;5.426;2022-11-20T02:18:17;101223.38;;;-3.68;100.00
62420;BME280;48460;51.616;5.426;2022-11-20T02:20:46;101221.72;;;-3.62;100.00
62420;BME280;48460;51.616;5.426;2022-11-20T02:23:36;101226.94;;;-3.56;100.00
62420;BME280;48460;51.616;5.426;2022-11-20T02:26:06;101228.69;;;-3.52;100.00
62420;BME280;48460;51.616;5.426;2022-11-20T02:28:32;101220.16;;;-3.50;100.00
62420;BME280;48460;51.616;5.426;2022-11-20T02:30:58;101230.44;;;-3.48;100.00
62420;BME280;48460;51.616;5.426;2022-11-20T02:33:24;101222.59;;;-3.60;100.00
62420;BME280;48460;51.616;5.426;2022-11-20T02:35:49;101228.38;;;-3.80;100.00
62420;BME280;48460;51.616;5.426;2022-11-20T02:38:14;101218.78;;;-3.90;100.00
62420;BME280;48460;51.616;5.426;2022-11-20T02:40:40;101219.56;;;-3.97;100.00
62420;BME280;48460;51.616;5.426;2022-11-20T02:43:06;101217.00;;;-3.96;100.00
62420;BME280;48460;51.616;5.426;2022-11-20T02:45:32;101219.66;;;-3.93;100.00
62420;BME280;48460;51.616;5.426;2022-11-20T02:47:58;101212.88;;;-3.86;100.00
62420;BME280;48460;51.616;5.426;2022-11-20T02:50:24;101222.41;;;-3.77;100.00
62420;BME280;48460;51.616;5.426;2022-11-20T02:52:50;101218.19;;;-3.71;100.00
62420;BME280;48460;51.616;5.426;2022-11-20T02:55:15;101211.41;;;-3.65;100.00
62420;BME280;48460;51.616;5.426;2022-11-20T02:57:40;101213.19;;;-3.60;100.00
62420;BME280;48460;51.616;5.426;2022-11-20T03:00:07;101220.06;;;-3.57;100.00
62420;BME280;48460;51.616;5.426;2022-11-20T03:02:33;101214.94;;;-3.56;100.00
62420;BME280;48460;51.616;5.426;2022-11-20T03:04:58;101215.00;;;-3.53;100.00
62420;BME280;48460;51.616;5.426;2022-11-20T03:07:24;101208.13;;;-3.54;100.00
62420;BME280;48460;51.616;5.426;2022-11-20T03:09:49;101210.66;;;-3.57;100.00
62420;BME280;48460;51.616;5.426;2022-11-20T03:12:15;101207.16;;;-3.62;100.00
62420;BME280;48460;51.616;5.426;2022-11-20T03:14:40;101209.75;;;-3.60;100.00
62420;BME280;48460;51.616;5.426;2022-11-20T03:17:06;101200.47;;;-3.51;100.00
62420;BME280;48460;51.616;5.426;2022-11-20T03:19:31;101200.53;;;-3.43;100.00
62420;BME280;48460;51.616;5.426;2022-11-20T03:21:57;101203.94;;;-3.42;100.00
62420;BME280;48460;51.616;5.426;2022-11-20T03:24:22;101202.22;;;-3.44;100.00
62420;BME280;48460;51.616;5.426;2022-11-20T03:26:48;101195.38;;;-3.43;100.00
62420;BME280;48460;51.616;5.426;2022-11-20T03:29:13;101197.84;;;-3.52;100.00
62420;BME280;48460;51.616;5.426;2022-11-20T03:31:40;101200.38;;;-3.55;100.00
62420;BME280;48460;51.616;5.426;2022-11-20T03:34:09;101199.47;;;-3.62;100.00
62420;BME280;48460;51.616;5.426;2022-11-20T03:36:40;101196.00;;;-3.64;100.00
62420;BME280;48460;51.616;5.426;2022-11-20T03:39:08;101195.97;;;-3.69;100.00
62420;BME280;48460;51.616;5.426;2022-11-20T03:41:39;101199.34;;;-3.70;100.00
62420;BME280;48460;51.616;5.426;2022-11-20T03:44:08;101191.56;;;-3.76;100.00
62420;BME280;48460;51.616;5.426;2022-11-20T03:46:34;101193.28;;;-3.76;100.00
62420;BME280;48460;51.616;5.426;2022-11-20T03:49:00;101188.19;;;-3.75;100.00
62420;BME280;48460;51.616;5.426;2022-11-20T03:51:28;101183.94;;;-3.70;100.00
62420;BME280;48460;51.616;5.426;2022-11-20T03:53:56;101178.88;;;-3.65;100.00
62420;BME280;48460;51.616;5.426;2022-11-20T03:56:28;101175.47;;;-3.62;100.00
62420;BME280;48460;51.616;5.426;2022-11-20T03:58:54;101177.28;;;-3.52;100.00
62420;BME280;48460;51.616;5.426;2022-11-20T04:01:25;101166.97;;;-3.55;100.00
62420;BME280;48460;51.616;5.426;2022-11-20T04:03:51;101171.28;;;-3.51;100.00
62420;BME280;48460;51.616;5.426;2022-11-20T04:06:25;101171.22;;;-3.59;100.00
62420;BME280;48460;51.616;5.426;2022-11-20T04:08:54;101166.06;;;-3.60;100.00
62420;BME280;48460;51.616;5.426;2022-11-20T04:11:22;101167.75;;;-3.61;100.00
62420;BME280;48460;51.616;5.426;2022-11-20T04:13:50;101168.63;;;-3.62;100.00
62420;BME280;48460;51.616;5.426;2022-11-20T04:16:16;101157.50;;;-3.59;100.00
62420;BME280;48460;51.616;5.426;2022-11-20T04:18:42;101163.47;;;-3.60;100.00
62420;BME280;48460;51.616;5.426;2022-11-20T04:21:08;101159.19;;;-3.61;100.00
62420;BME280;48460;51.616;5.426;2022-11-20T04:23:34;101160.91;;;-3.60;100.00
62420;BME280;48460;51.616;5.426;2022-11-20T04:26:08;101159.22;;;-3.58;100.00
62420;BME280;48460;51.616;5.426;2022-11-20T04:28:35;101157.50;;;-3.58;100.00
62420;BME280;48460;51.616;5.426;2022-11-20T04:31:09;101160.13;;;-3.55;100.00
62420;BME280;48460;51.616;5.426;2022-11-20T04:33:36;101151.59;;;-3.54;100.00
62420;BME280;48460;51.616;5.426;2022-11-20T04:36:11;101150.72;;;-3.51;100.00
62420;BME280;48460;51.616;5.426;2022-11-20T04:38:37;101152.44;;;-3.53;100.00
62420;BME280;48460;51.616;5.426;2022-11-20T04:41:05;101148.16;;;-3.51;100.00
62420;BME280;48460;51.616;5.426;2022-11-20T04:43:31;101148.06;;;-3.60;100.00
62420;BME280;48460;51.616;5.426;2022-11-20T04:45:58;101154.81;;;-3.70;100.00
62420;BME280;48460;51.616;5.426;2022-11-20T04:48:25;101153.06;;;-3.74;100.00
62420;BME280;48460;51.616;5.426;2022-11-20T04:50:51;101152.19;;;-3.76;100.00
62420;BME280;48460;51.616;5.426;2022-11-20T04:53:17;101146.16;;;-3.78;100.00
62420;BME280;48460;51.616;5.426;2022-11-20T04:55:45;101152.97;;;-3.83;100.00
62420;BME280;48460;51.616;5.426;2022-11-20T04:58:11;101146.06;;;-3.84;100.00
62420;BME280;48460;51.616;5.426;2022-11-20T05:00:37;101137.53;;;-3.82;100.00
62420;BME280;48460;51.616;5.426;2022-11-20T05:03:02;101134.09;;;-3.84;100.00
62420;BME280;48460;51.616;5.426;2022-11-20T05:05:30;101132.38;;;-3.85;100.00
62420;BME280;48460;51.616;5.426;2022-11-20T05:07:57;101136.59;;;-3.92;100.00
62420;BME280;48460;51.616;5.426;2022-11-20T05:10:24;101131.38;;;-3.98;100.00
62420;BME280;48460;51.616;5.426;2022-11-20T05:12:49;101127.91;;;-4.01;100.00
62420;BME280;48460;51.616;5.426;2022-11-20T05:15:15;101126.13;;;-4.05;100.00
62420;BME280;48460;51.616;5.426;2022-11-20T05:17:40;101127.88;;;-4.04;100.00
62420;BME280;48460;51.616;5.426;2022-11-20T05:20:06;101121.06;;;-4.01;100.00
62420;BME280;48460;51.616;5.426;2022-11-20T05:22:32;101121.03;;;-4.02;100.00
62420;BME280;48460;51.616;5.426;2022-11-20T05:24:57;101115.84;;;-4.05;100.00
62420;BME280;48460;51.616;5.426;2022-11-20T05:27:23;101118.44;;;-4.05;100.00
62420;BME280;48460;51.616;5.426;2022-11-20T05:29:48;101117.59;;;-4.03;100.00
62420;BME280;48460;51.616;5.426;2022-11-20T05:32:14;101114.22;;;-3.99;100.00
62420;BME280;48460;51.616;5.426;2022-11-20T05:34:39;101106.50;;;-3.99;100.00
62420;BME280;48460;51.616;5.426;2022-11-20T05:37:05;101115.94;;;-3.99;100.00
62420;BME280;48460;51.616;5.426;2022-11-20T05:39:30;101115.97;;;-3.96;100.00
62420;BME280;48460;51.616;5.426;2022-11-20T05:41:56;101124.59;;;-3.91;100.00
62420;BME280;48460;51.616;5.426;2022-11-20T05:44:40;101127.28;;;-3.83;100.00
62420;BME280;48460;51.616;5.426;2022-11-20T05:47:05;101123.81;;;-3.84;100.00
62420;BME280;48460;51.616;5.426;2022-11-20T05:49:31;101132.41;;;-3.82;100.00
62420;BME280;48460;51.616;5.426;2022-11-20T05:51:57;101131.53;;;-3.85;100.00
62420;BME280;48460;51.616;5.426;2022-11-20T05:54:23;101133.25;;;-3.83;100.00
62420;BME280;48460;51.616;5.426;2022-11-20T05:56:51;101140.16;;;-3.80;100.00
62420;BME280;48460;51.616;5.426;2022-11-20T05:59:16;101141.91;;;-3.76;100.00
62420;BME280;48460;51.616;5.426;2022-11-20T06:01:42;101141.03;;;-3.75;100.00
62420;BME280;48460;51.616;5.426;2022-11-20T06:04:07;101143.75;;;-3.64;100.00
62420;BME280;48460;51.616;5.426;2022-11-20T06:06:33;101137.69;;;-3.70;100.00
62420;BME280;48460;51.616;5.426;2022-11-20T06:09:00;101152.06;;;-3.85;100.00
62420;BME280;48460;51.616;5.426;2022-11-20T06:11:26;101144.16;;;-4.04;100.00
62420;BME280;48460;51.616;5.426;2022-11-20T06:13:51;101151.78;;;-4.08;100.00
62420;BME280;48460;51.616;5.426;2022-11-20T06:16:19;101148.34;;;-4.09;100.00
62420;BME280;48460;51.616;5.426;2022-11-20T06:18:46;101152.63;;;-4.09;100.00
62420;BME280;48460;51.616;5.426;2022-11-20T06:21:20;101151.81;;;-4.05;100.00
62420;BME280;48460;51.616;5.426;2022-11-20T06:23:46;101135.63;;;-4.01;100.00
62420;BME280;48460;51.616;5.426;2022-11-20T06:26:17;101135.72;;;-3.92;100.00
62420;BME280;48460;51.616;5.426;2022-11-20T06:28:43;101132.50;;;-3.74;100.00
62420;BME280;48460;51.616;5.426;2022-11-20T06:31:11;101142.00;;;-3.67;100.00
62420;BME280;48460;51.616;5.426;2022-11-20T06:33:40;101151.53;;;-3.60;100.00
62420;BME280;48460;51.616;5.426;2022-11-20T06:36:06;101135.22;;;-3.62;100.00
62420;BME280;48460;51.616;5.426;2022-11-20T06:38:34;101142.13;;;-3.56;100.00
62420;BME280;48460;51.616;5.426;2022-11-20T06:41:00;101142.09;;;-3.58;100.00
62420;BME280;48460;51.616;5.426;2022-11-20T06:43:25;101143.88;;;-3.54;100.00
62420;BME280;48460;51.616;5.426;2022-11-20T06:45:55;101137.06;;;-3.46;100.00
62420;BME280;48460;51.616;5.426;2022-11-20T06:48:25;101129.38;;;-3.46;100.00
62420;BME280;48460;51.616;5.426;2022-11-20T06:50:51;101127.75;;;-3.39;100.00
62420;BME280;48460;51.616;5.426;2022-11-20T06:53:17;101127.81;;;-3.28;100.00
62420;BME280;48460;51.616;5.426;2022-11-20T06:55:44;101121.00;;;-3.25;100.00
62420;BME280;48460;51.616;5.426;2022-11-20T06:58:13;101123.63;;;-3.20;100.00
62420;BME280;48460;51.616;5.426;2022-11-20T07:00:42;101108.22;;;-3.17;100.00
62420;BME280;48460;51.616;5.426;2022-11-20T07:03:09;101118.56;;;-3.11;100.00
62420;BME280;48460;51.616;5.426;2022-11-20T07:05:35;101107.41;;;-3.07;100.00
62420;BME280;48460;51.616;5.426;2022-11-20T07:08:02;101113.50;;;-3.00;100.00
62420;BME280;48460;51.616;5.426;2022-11-20T07:10:27;101118.63;;;-2.99;100.00
62420;BME280;48460;51.616;5.426;2022-11-20T07:12:53;101123.84;;;-2.94;100.00
62420;BME280;48460;51.616;5.426;2022-11-20T07:15:22;101116.94;;;-3.00;100.00
62420;BME280;48460;51.616;5.426;2022-11-20T07:17:48;101119.47;;;-3.01;100.00
62420;BME280;48460;51.616;5.426;2022-11-20T07:20:14;101108.34;;;-3.03;100.00
62420;BME280;48460;51.616;5.426;2022-11-20T07:22:40;101128.06;;;-3.01;100.00
62420;BME280;48460;51.616;5.426;2022-11-20T07:25:06;101123.78;;;-3.03;100.00
62420;BME280;48460;51.616;5.426;2022-11-20T07:27:34;101114.34;;;-3.01;100.00
62420;BME280;48460;51.616;5.426;2022-11-20T07:30:00;101118.72;;;-2.89;100.00
62420;BME280;48460;51.616;5.426;2022-11-20T07:32:30;101105.00;;;-2.90;100.00
62420;BME280;48460;51.616;5.426;2022-11-20T07:34:59;101101.66;;;-2.77;100.00
62420;BME280;48460;51.616;5.426;2022-11-20T07:37:24;101089.66;;;-2.71;100.00
62420;BME280;48460;51.616;5.426;2022-11-20T07:39:50;101095.75;;;-2.62;100.00
62420;BME280;48460;51.616;5.426;2022-11-20T07:42:15;101100.91;;;-2.57;100.00
62420;BME280;48460;51.616;5.426;2022-11-20T07:44:41;101095.78;;;-2.59;100.00
62420;BME280;48460;51.616;5.426;2022-11-20T07:47:06;101098.38;;;-2.51;100.00
62420;BME280;48460;51.616;5.426;2022-11-20T07:49:32;101105.31;;;-2.44;100.00
62420;BME280;48460;51.616;5.426;2022-11-20T07:51:58;101103.59;;;-2.39;100.00
62420;BME280;48460;51.616;5.426;2022-11-20T07:54:23;101113.94;;;-2.30;100.00
62420;BME280;48460;51.616;5.426;2022-11-20T07:56:49;101107.94;;;-2.28;100.00
62420;BME280;48460;51.616;5.426;2022-11-20T07:59:15;101112.25;;;-2.24;100.00
62420;BME280;48460;51.616;5.426;2022-11-20T08:01:41;101109.72;;;-2.17;100.00
62420;BME280;48460;51.616;5.426;2022-11-20T08:04:07;101117.47;;;-2.11;100.00
62420;BME280;48460;51.616;5.426;2022-11-20T08:06:33;101119.25;;;-1.99;100.00
62420;BME280;48460;51.616;5.426;2022-11-20T08:08:58;101114.09;;;-1.91;100.00
62420;BME280;48460;51.616;5.426;2022-11-20T08:11:23;101108.97;;;-1.84;100.00
62420;BME280;48460;51.616;5.426;2022-11-20T08:14:07;101107.28;;;-1.77;100.00
62420;BME280;48460;51.616;5.426;2022-11-20T08:16:45;101108.16;;;-1.70;100.00
62420;BME280;48460;51.616;5.426;2022-11-20T08:19:13;101108.16;;;-1.64;100.00
62420;BME280;48460;51.616;5.426;2022-11-20T08:21:39;101116.78;;;-1.62;100.00
62420;BME280;48460;51.616;5.426;2022-11-20T08:24:05;101109.91;;;-1.66;100.00
62420;BME280;48460;51.616;5.426;2022-11-20T08:26:31;101106.47;;;-1.64;100.00
62420;BME280;48460;51.616;5.426;2022-11-20T08:28:57;101106.47;;;-1.61;100.00
62420;BME280;48460;51.616;5.426;2022-11-20T08:31:27;101093.59;;;-1.57;100.00
62420;BME280;48460;51.616;5.426;2022-11-20T08:33:53;101095.31;;;-1.53;100.00
62420;BME280;48460;51.616;5.426;2022-11-20T08:36:19;101105.63;;;-1.53;100.00
62420;BME280;48460;51.616;5.426;2022-11-20T08:38:52;101111.66;;;-1.54;100.00
62420;BME280;48460;51.616;5.426;2022-11-20T08:41:18;101102.16;;;-1.55;100.00
62420;BME280;48460;51.616;5.426;2022-11-20T08:43:56;101101.31;;;-1.44;100.00
62420;BME280;48460;51.616;5.426;2022-11-20T08:46:26;101092.75;;;-1.38;100.00
62420;BME280;48460;51.616;5.426;2022-11-20T08:48:53;101106.50;;;-1.30;100.00
62420;BME280;48460;51.616;5.426;2022-11-20T08:51:19;101107.38;;;-1.23;100.00
62420;BME280;48460;51.616;5.426;2022-11-20T08:53:44;101109.97;;;-1.22;100.00
62420;BME280;48460;51.616;5.426;2022-11-20T08:56:10;101099.63;;;-1.17;100.00
62420;BME280;48460;51.616;5.426;2022-11-20T08:58:37;101097.06;;;-1.06;100.00
62420;BME280;48460;51.616;5.426;2022-11-20T09:01:03;101091.88;;;-1.02;100.00
62420;BME280;48460;51.616;5.426;2022-11-20T09:03:28;101087.59;;;-0.95;100.00
62420;BME280;48460;51.616;5.426;2022-11-20T09:06:01;101078.97;;;-0.88;100.00
62420;BME280;48460;51.616;5.426;2022-11-20T09:08:27;101089.28;;;-0.79;100.00
62420;BME280;48460;51.616;5.426;2022-11-20T09:10:54;101083.22;;;-0.69;100.00
62420;BME280;48460;51.616;5.426;2022-11-20T09:13:20;101089.25;;;-0.56;100.00
62420;BME280;48460;51.616;5.426;2022-11-20T09:15:46;101094.38;;;-0.51;100.00
62420;BME280;48460;51.616;5.426;2022-11-20T09:18:12;101090.09;;;-0.52;100.00
62420;BME280;48460;51.616;5.426;2022-11-20T09:20:43;101090.09;;;-0.52;100.00
62420;BME280;48460;51.616;5.426;2022-11-20T09:26:02;101075.47;;;-0.52;100.00
62420;BME280;48460;51.616;5.426;2022-11-20T09:28:31;101077.19;;;-0.44;100.00
62420;BME280;48460;51.616;5.426;2022-11-20T09:30:59;101062.50;;;-0.39;100.00
62420;BME280;48460;51.616;5.426;2022-11-20T09:34:02;101065.06;;;-0.32;100.00
62420;BME280;48460;51.616;5.426;2022-11-20T09:36:29;101061.59;;;-0.26;100.00
62420;BME280;48460;51.616;5.426;2022-11-20T09:38:58;101058.97;;;-0.21;100.00
62420;BME280;48460;51.616;5.426;2022-11-20T09:44:51;101054.59;;;-0.04;100.00
62420;BME280;48460;51.616;5.426;2022-11-20T09:50:19;101055.38;;;0.09;100.00
62420;BME280;48460;51.616;5.426;2022-11-20T09:55:31;101038.97;;;0.14;100.00
62420;BME280;48460;51.616;5.426;2022-11-20T09:57:59;101035.53;;;0.18;100.00
62420;BME280;48460;51.616;5.426;2022-11-20T10:00:26;101041.56;;;0.19;100.00
62420;BME280;48460;51.616;5.426;2022-11-20T10:05:23;101031.97;;;0.33;100.00
62420;BME280;48460;51.616;5.426;2022-11-20T10:10:44;101016.41;;;0.39;100.00
62420;BME280;48460;51.616;5.426;2022-11-20T10:19:10;100994.75;;;0.53;100.00
62420;BME280;48460;51.616;5.426;2022-11-20T10:22:07;100999.88;;;0.60;100.00
62420;BME280;48460;51.616;5.426;2022-11-20T10:30:21;100971.25;;;0.74;100.00
62420;BME280;48460;51.616;5.426;2022-11-20T10:32:59;100964.31;;;0.81;100.00
62420;BME280;48460;51.616;5.426;2022-11-20T10:35:38;100949.59;;;0.84;100.00
62420;BME280;48460;51.616;5.426;2022-11-20T10:38:16;100943.47;;;0.93;100.00
62420;BME280;48460;51.616;5.426;2022-11-20T10:40:51;100936.53;;;0.98;100.00
62420;BME280;48460;51.616;5.426;2022-11-20T10:43:28;100936.34;;;1.12;100.00
62420;BME280;48460;51.616;5.426;2022-11-20T10:46:20;100924.19;;;1.17;100.00
62420;BME280;48460;51.616;5.426;2022-11-20T10:48:50;100918.94;;;1.23;100.00
62420;BME280;48460;51.616;5.426;2022-11-20T10:56:56;100902.34;;;1.38;100.00
62420;BME280;48460;51.616;5.426;2022-11-20T11:02:19;100895.31;;;1.48;100.00
62420;BME280;48460;51.616;5.426;2022-11-20T11:04:54;100887.53;;;1.49;100.00
62420;BME280;48460;51.616;5.426;2022-11-20T11:07:37;100890.88;;;1.54;100.00
62420;BME280;48460;51.616;5.426;2022-11-20T11:10:15;100899.47;;;1.59;100.00
62420;BME280;48460;51.616;5.426;2022-11-20T11:12:47;100890.91;;;1.53;100.00
62420;BME280;48460;51.616;5.426;2022-11-20T11:15:38;100897.03;;;1.47;100.00
62420;BME280;48460;51.616;5.426;2022-11-20T11:18:05;100886.75;;;1.41;100.00
62420;BME280;48460;51.616;5.426;2022-11-20T11:20:33;100885.03;;;1.42;100.00
62420;BME280;48460;51.616;5.426;2022-11-20T11:22:59;100881.63;;;1.38;100.00
62420;BME280;48460;51.616;5.426;2022-11-20T11:25:33;100872.16;;;1.35;100.00
62420;BME280;48460;51.616;5.426;2022-11-20T11:28:03;100879.03;;;1.38;100.00
62420;BME280;48460;51.616;5.426;2022-11-20T11:30:41;100878.09;;;1.44;100.00
62420;BME280;48460;51.616;5.426;2022-11-20T11:33:11;100882.47;;;1.40;100.00
62420;BME280;48460;51.616;5.426;2022-11-20T11:35:57;100884.16;;;1.40;100.00
62420;BME280;48460;51.616;5.426;2022-11-20T11:38:39;100885.03;;;1.42;100.00
62420;BME280;48460;51.616;5.426;2022-11-20T11:41:09;100883.25;;;1.45;100.00
62420;BME280;48460;51.616;5.426;2022-11-20T11:43:37;100879.84;;;1.43;100.00
62420;BME280;48460;51.616;5.426;2022-11-20T11:46:35;100869.47;;;1.43;100.00
62420;BME280;48460;51.616;5.426;2022-11-20T11:54:23;100846.09;;;1.45;100.00
62420;BME280;48460;51.616;5.426;2022-11-20T11:56:50;100846.06;;;1.48;100.00
62420;BME280;48460;51.616;5.426;2022-11-20T11:59:49;100845.97;;;1.55;100.00
62420;BME280;48460;51.616;5.426;2022-11-20T12:02:36;100828.69;;;1.54;100.00
62420;BME280;48460;51.616;5.426;2022-11-20T12:07:59;100793.19;;;1.59;100.00
62420;BME280;48460;51.616;5.426;2022-11-20T12:13:37;100799.97;;;1.70;100.00
62420;BME280;48460;51.616;5.426;2022-11-20T12:16:05;100788.66;;;1.72;100.00
62420;BME280;48460;51.616;5.426;2022-11-20T12:18:31;100785.19;;;1.73;100.00
62420;BME280;48460;51.616;5.426;2022-11-20T12:32:54;100747.91;;;1.82;100.00
62420;BME280;48460;51.616;5.426;2022-11-20T12:39:01;100747.84;;;1.85;100.00
62420;BME280;48460;51.616;5.426;2022-11-20T12:45:05;100725.97;;;1.98;100.00
62420;BME280;48460;51.616;5.426;2022-11-20T12:50:40;100725.72;;;2.12;100.00
62420;BME280;48460;51.616;5.426;2022-11-20T12:53:36;100713.59;;;2.14;100.00
62420;BME280;48460;51.616;5.426;2022-11-20T13:02:18;100688.03;;;2.38;100.00
62420;BME280;48460;51.616;5.426;2022-11-20T13:07:29;100670.56;;;2.46;100.00
62420;BME280;48460;51.616;5.426;2022-11-20T13:09:56;100682.63;;;2.48;100.00
62420;BME280;48460;51.616;5.426;2022-11-20T13:12:39;100669.72;;;2.44;100.00
62420;BME280;48460;51.616;5.426;2022-11-20T13:15:26;100669.63;;;2.50;100.00
62420;BME280;48460;51.616;5.426;2022-11-20T13:17:59;100641.16;;;2.45;100.00
62420;BME280;48460;51.616;5.426;2022-11-20T13:20:26;100640.25;;;2.48;100.00
62420;BME280;48460;51.616;5.426;2022-11-20T13:22:53;100642.75;;;2.51;100.00
62420;BME280;48460;51.616;5.426;2022-11-20T13:27:56;100638.28;;;2.58;100.00
62420;BME280;48460;51.616;5.426;2022-11-20T13:30:24;100625.31;;;2.58;100.00
62420;BME280;48460;51.616;5.426;2022-11-20T13:32:54;100619.09;;;2.65;100.00
62420;BME280;48460;51.616;5.426;2022-11-20T13:35:35;100619.91;;;2.67;100.00
62420;BME280;48460;51.616;5.426;2022-11-20T13:38:08;100617.22;;;2.71;100.00
62420;BME280;48460;51.616;5.426;2022-11-20T13:40:37;100605.06;;;2.72;100.00
62420;BME280;48460;51.616;5.426;2022-11-20T13:43:42;100615.38;;;2.75;100.00
62420;BME280;48460;51.616;5.426;2022-11-20T13:46:12;100612.88;;;2.70;100.00
62420;BME280;48460;51.616;5.426;2022-11-20T13:48:42;100607.69;;;2.70;100.00
62420;BME280;48460;51.616;5.426;2022-11-20T14:00:01;100596.28;;;2.78;100.00
62420;BME280;48460;51.616;5.426;2022-11-20T14:02:28;100578.97;;;2.78;100.00
62420;BME280;48460;51.616;5.426;2022-11-20T14:04:58;100575.44;;;2.81;100.00
62420;BME280;48460;51.616;5.426;2022-11-20T14:07:35;100574.53;;;2.83;100.00
62420;BME280;48460;51.616;5.426;2022-11-20T14:10:03;100566.72;;;2.83;100.00
62420;BME280;48460;51.616;5.426;2022-11-20T14:12:33;100571.78;;;2.88;100.00
62420;BME280;48460;51.616;5.426;2022-11-20T14:14:59;100565.81;;;2.86;100.00
62420;BME280;48460;51.616;5.426;2022-11-20T14:17:33;100563.13;;;2.89;100.00
62420;BME280;48460;51.616;5.426;2022-11-20T14:20:06;100557.97;;;2.87;100.00
62420;BME280;48460;51.616;5.426;2022-11-20T14:22:32;100550.22;;;2.86;100.00
62420;BME280;48460;51.616;5.426;2022-11-20T14:27:39;100545.88;;;2.86;100.00
62420;BME280;48460;51.616;5.426;2022-11-20T14:30:06;100543.31;;;2.85;100.00